Terminal Aerodrome Forecast
Issued by NWS

Home | Current Version | Previous Version | Text Only | Print | Product List | Glossary On
Versions: 1 2 3 4 5 6 7 8 9 10 11 12 13 14
000
FTUS43 KIND 012300
TAFHUF
TAF
KHUF 012320Z 0200/0224 13006KT P6SM SCT250
     FM020900 16004KT P6SM VCSH BKN050 BKN250
     FM021400 18008KT P6SM SCT040 BKN100
     FM022000 17010KT P6SM VCSH BKN040=

USA.gov is the U.S. government's official web portal to all federal, state and local government web resources and services.